Terminal Aerodrome Forecast
Issued by NWS

Home | Current Version | Previous Version | Graphics & Text | Print | Product List | Glossary On
Versions: 1 2 3 4 5 6 7 8 9 10 11 12 13 14
000
FTUS43 KMPX 040052 AAA
TAFRWF
TAF AMD
KRWF 040052Z 0401/0424 01014KT P6SM SCT120
     FM040600 35006KT P6SM SKC
     FM041500 04012KT P6SM BKN250=

USA.gov is the U.S. government's official web portal to all federal, state and local government web resources and services.